createdAt,value
2017-12-10T00:00:37.489Z,100087.98
2017-12-10T00:03:05.215Z,100084.28
2017-12-10T00:05:32.962Z,100085.38
2017-12-10T00:08:00.669Z,100078.67
2017-12-10T00:10:28.422Z,100074.67
2017-12-10T00:12:56.131Z,100080.81
2017-12-10T00:15:23.881Z,100073.09
2017-12-10T00:17:51.592Z,100071.16
2017-12-10T00:20:19.374Z,100061.13
2017-12-10T00:22:47.064Z,100064.98
2017-12-10T00:25:14.830Z,100055.37
2017-12-10T00:27:42.511Z,100058.11
2017-12-10T00:30:10.326Z,100055.91
2017-12-10T00:32:38.009Z,100045.33
2017-12-10T00:35:05.762Z,100027.20
2017-12-10T00:37:33.454Z,100037.90
2017-12-10T00:40:01.197Z,100041.77
2017-12-10T00:42:28.903Z,100039.86
2017-12-10T00:44:56.663Z,100037.98
2017-12-10T00:47:24.356Z,100043.75
2017-12-10T00:49:52.108Z,100036.48
2017-12-10T00:52:19.839Z,100035.70
2017-12-10T00:54:47.588Z,100034.48
2017-12-10T00:57:15.288Z,100033.67
2017-12-10T00:59:43.025Z,100038.09
2017-12-10T01:02:10.733Z,100028.91
2017-12-10T01:04:38.479Z,100030.98
2017-12-10T01:07:06.172Z,100024.67
2017-12-10T01:09:33.947Z,100023.55
2017-12-10T01:12:01.633Z,100024.13
2017-12-10T01:14:29.446Z,100026.46
2017-12-10T01:16:57.139Z,100028.38
2017-12-10T01:19:24.892Z,100020.28
2017-12-10T01:21:52.601Z,100017.83
2017-12-10T01:24:20.379Z,100014.38
2017-12-10T01:26:48.079Z,100009.06
2017-12-10T01:29:15.820Z,100008.65
2017-12-10T01:31:43.504Z,100012.22
2017-12-10T01:34:11.246Z,100016.87
2017-12-10T01:36:38.974Z,100016.75
2017-12-10T01:39:06.664Z,100005.91
2017-12-10T01:41:34.429Z,100004.67
2017-12-10T01:44:02.129Z,100011.39
2017-12-10T01:46:29.863Z,100006.04
2017-12-10T01:48:57.548Z,100002.34
2017-12-10T01:51:25.342Z,99996.19
2017-12-10T01:53:53.040Z,99994.95
2017-12-10T01:56:20.783Z,99995.49
2017-12-10T01:58:48.464Z,99977.83
2017-12-10T02:01:16.209Z,99981.79
2017-12-10T02:03:43.907Z,99970.44
2017-12-10T02:06:11.625Z,99971.23
2017-12-10T02:08:39.310Z,99963.84
2017-12-10T02:11:07.063Z,99959.20
2017-12-10T02:13:34.772Z,99952.22
2017-12-10T02:16:02.513Z,99952.48
2017-12-10T02:18:30.217Z,99942.89
2017-12-10T02:20:57.945Z,99946.74
2017-12-10T02:23:25.645Z,99941.13
2017-12-10T02:25:53.410Z,99936.98
2017-12-10T02:28:21.723Z,99933.16
2017-12-10T02:30:49.475Z,99938.77
2017-12-10T02:33:17.163Z,99924.65
2017-12-10T02:35:44.909Z,99923.14
2017-12-10T02:38:12.611Z,99917.13
2017-12-10T02:40:40.355Z,99909.98
2017-12-10T02:43:08.145Z,99909.31
2017-12-10T02:45:35.873Z,99902.89
2017-12-10T02:48:03.587Z,99895.22
2017-12-10T02:50:31.325Z,99889.20
2017-12-10T02:52:59.086Z,99889.33
2017-12-10T02:55:26.849Z,99889.33
2017-12-10T02:57:54.544Z,99892.90
2017-12-10T03:00:22.292Z,99883.02
2017-12-10T03:02:49.987Z,99883.84
2017-12-10T03:05:17.734Z,99875.61
2017-12-10T03:07:45.428Z,99881.22
2017-12-10T03:10:13.208Z,99880.00
2017-12-10T03:12:40.893Z,99869.04
2017-12-10T03:15:08.650Z,99857.79
2017-12-10T03:17:36.349Z,99859.98
2017-12-10T03:20:04.098Z,99860.94
2017-12-10T03:22:31.778Z,99861.06
2017-12-10T03:24:59.518Z,99861.34
2017-12-10T03:27:27.205Z,99854.32
2017-12-10T03:29:54.956Z,99848.82
2017-12-10T03:32:22.642Z,99847.03
2017-12-10T03:34:50.341Z,99840.31
2017-12-10T03:37:18.064Z,99840.98
2017-12-10T03:39:45.757Z,99835.48
2017-12-10T03:42:13.535Z,99834.52
2017-12-10T03:44:41.280Z,99831.89
2017-12-10T03:47:09.057Z,99832.59
2017-12-10T03:49:36.741Z,99828.88
2017-12-10T03:52:08.615Z,99821.19
2017-12-10T03:54:36.291Z,99820.77
2017-12-10T03:57:04.040Z,99816.37
2017-12-10T03:59:31.740Z,99811.56
2017-12-10T04:01:59.456Z,99810.98
2017-12-10T04:04:27.139Z,99810.84
2017-12-10T04:06:54.863Z,99803.33
2017-12-10T04:09:22.551Z,99804.72
2017-12-10T04:11:50.281Z,99801.59
2017-12-10T04:14:17.969Z,99789.38
2017-12-10T04:16:45.712Z,99790.35
2017-12-10T04:19:13.440Z,99778.44
2017-12-10T04:21:41.171Z,99779.41
2017-12-10T04:24:08.869Z,99775.62
2017-12-10T04:26:36.616Z,99774.67
2017-12-10T04:29:04.315Z,99764.97
2017-12-10T04:31:32.055Z,99768.97
2017-12-10T04:33:59.729Z,99766.80
2017-12-10T04:36:27.464Z,99762.16
2017-12-10T04:38:55.167Z,99761.35
2017-12-10T04:41:22.929Z,99756.13
2017-12-10T04:43:50.615Z,99754.80
2017-12-10T04:46:18.342Z,99745.88
2017-12-10T04:48:46.075Z,99737.95
2017-12-10T04:51:13.844Z,99740.30
2017-12-10T04:53:41.533Z,99733.87
2017-12-10T04:56:09.269Z,99730.30
2017-12-10T04:58:36.947Z,99726.73
2017-12-10T05:01:04.703Z,99725.92
2017-12-10T05:03:32.394Z,99726.34
2017-12-10T05:06:00.150Z,99717.02
2017-12-10T05:08:27.838Z,99717.41
2017-12-10T05:10:55.580Z,99712.88
2017-12-10T05:13:23.289Z,99710.39
2017-12-10T05:15:51.024Z,99709.59
2017-12-10T05:18:18.725Z,99699.86
2017-12-10T05:20:46.473Z,99695.34
2017-12-10T05:23:14.171Z,99691.82
2017-12-10T05:25:41.935Z,99689.22
2017-12-10T05:28:09.668Z,99695.95
2017-12-10T05:30:37.344Z,99684.45
2017-12-10T05:33:05.091Z,99676.23
2017-12-10T05:35:32.784Z,99673.87
2017-12-10T05:38:00.451Z,99670.17
2017-12-10T05:40:28.200Z,99668.95
2017-12-10T05:42:55.937Z,99664.02
2017-12-10T05:45:23.565Z,99659.80
2017-12-10T05:47:51.301Z,99657.73
2017-12-10T05:50:19.009Z,99649.81
2017-12-10T05:52:46.801Z,99648.05
2017-12-10T05:55:14.523Z,99641.08
2017-12-10T05:57:42.272Z,99642.70
2017-12-10T06:00:09.969Z,99636.42
2017-12-10T06:02:37.686Z,99625.77
2017-12-10T06:05:05.378Z,99623.19
2017-12-10T06:07:33.135Z,99625.41
2017-12-10T06:10:00.827Z,99616.41
2017-12-10T06:12:28.560Z,99618.34
2017-12-10T06:14:56.256Z,99616.15
2017-12-10T06:17:23.994Z,99613.70
2017-12-10T06:19:51.686Z,99609.44
2017-12-10T06:22:19.415Z,99596.67
2017-12-10T06:24:47.103Z,99606.55
2017-12-10T06:27:14.837Z,99595.73
2017-12-10T06:29:42.532Z,99600.81
2017-12-10T06:32:10.289Z,99596.47
2017-12-10T06:34:37.984Z,99590.87
2017-12-10T06:37:05.722Z,99584.70
2017-12-10T06:39:33.414Z,99582.27
2017-12-10T06:42:01.180Z,99582.15
2017-12-10T06:44:28.881Z,99576.39
2017-12-10T06:46:56.625Z,99568.07
2017-12-10T06:49:24.314Z,99562.61
2017-12-10T06:51:51.996Z,99565.62
2017-12-10T06:54:19.690Z,99561.52
2017-12-10T06:56:47.433Z,99550.47
2017-12-10T06:59:15.129Z,99545.95
2017-12-10T07:01:42.900Z,99541.19
2017-12-10T07:04:10.621Z,99534.77
2017-12-10T07:06:38.356Z,99535.70
2017-12-10T07:09:06.093Z,99539.37
2017-12-10T07:11:33.852Z,99529.88
2017-12-10T07:14:01.558Z,99524.78
2017-12-10T07:16:29.276Z,99526.25
2017-12-10T07:18:56.956Z,99524.12
2017-12-10T07:21:24.647Z,99516.16
2017-12-10T07:23:52.391Z,99519.26
2017-12-10T07:26:20.081Z,99508.50
2017-12-10T07:28:47.800Z,99501.08
2017-12-10T07:31:15.484Z,99496.39
2017-12-10T07:33:43.211Z,99487.56
2017-12-10T07:36:10.922Z,99485.49
2017-12-10T07:38:38.675Z,99479.28
2017-12-10T07:41:06.392Z,99478.41
2017-12-10T07:43:34.142Z,99481.00
2017-12-10T07:46:01.835Z,99472.60
2017-12-10T07:48:29.583Z,99469.43
2017-12-10T07:50:57.275Z,99461.43
2017-12-10T07:53:25.096Z,99450.45
2017-12-10T07:55:52.791Z,99449.33
2017-12-10T07:58:20.523Z,99451.50
2017-12-10T08:00:48.379Z,99446.23
2017-12-10T08:03:16.097Z,99454.84
2017-12-10T08:05:43.806Z,99444.14
2017-12-10T08:08:11.539Z,99437.09
2017-12-10T08:10:39.232Z,99435.28
2017-12-10T08:13:06.971Z,99430.59
2017-12-10T08:15:34.661Z,99431.80
2017-12-10T08:18:02.439Z,99422.45
2017-12-10T08:20:30.111Z,99419.16
2017-12-10T08:22:57.844Z,99415.16
2017-12-10T08:25:25.542Z,99405.83
2017-12-10T08:27:53.279Z,99403.34
2017-12-10T08:30:20.995Z,99399.57
2017-12-10T08:32:48.749Z,99397.80
2017-12-10T08:35:16.468Z,99394.44
2017-12-10T08:37:44.212Z,99383.44
2017-12-10T08:40:11.915Z,99373.56
2017-12-10T08:42:39.762Z,99365.00
2017-12-10T08:45:07.460Z,99360.88
2017-12-10T08:47:35.211Z,99356.22
2017-12-10T08:50:02.909Z,99358.00
2017-12-10T08:52:30.687Z,99348.64
2017-12-10T08:54:58.373Z,99341.38
2017-12-10T08:57:26.116Z,99341.12
2017-12-10T08:59:53.787Z,99340.17
2017-12-10T09:02:21.520Z,99339.59
2017-12-10T09:04:49.231Z,99327.38
2017-12-10T09:07:16.992Z,99326.80
2017-12-10T09:09:44.620Z,99318.16
2017-12-10T09:12:12.368Z,99316.13
2017-12-10T09:14:40.099Z,99313.94
2017-12-10T09:17:07.785Z,99317.47
2017-12-10T09:19:35.542Z,99304.92
2017-12-10T09:22:03.243Z,99302.08
2017-12-10T09:24:31.013Z,99304.20
2017-12-10T09:26:58.728Z,99295.88
2017-12-10T09:29:26.443Z,99294.23
2017-12-10T09:31:54.144Z,99291.55
2017-12-10T09:34:21.884Z,99279.96
2017-12-10T09:36:49.593Z,99281.29
2017-12-10T09:39:17.258Z,99263.34
2017-12-10T09:41:44.936Z,99251.11
2017-12-10T09:44:12.667Z,99253.32
2017-12-10T09:46:40.378Z,99237.91
2017-12-10T09:49:08.255Z,99224.50
2017-12-10T09:51:35.995Z,99216.90
2017-12-10T09:54:03.725Z,99206.45
2017-12-10T09:56:31.411Z,99194.39
2017-12-10T09:58:59.104Z,99186.24
2017-12-10T10:01:26.826Z,99169.94
2017-12-10T10:03:54.560Z,99173.41
2017-12-10T10:06:22.275Z,99156.59
2017-12-10T10:08:50.012Z,99158.92
2017-12-10T10:11:17.733Z,99142.66
2017-12-10T10:13:45.543Z,99131.32
2017-12-10T10:16:13.225Z,99127.34
2017-12-10T10:18:40.985Z,99112.30
2017-12-10T10:21:08.675Z,99103.05
2017-12-10T10:23:36.421Z,99096.97
2017-12-10T10:26:04.121Z,99079.27
2017-12-10T10:28:31.864Z,99075.01
2017-12-10T10:30:59.574Z,99064.80
2017-12-10T10:33:27.319Z,99069.69
2017-12-10T10:35:54.995Z,99056.28
2017-12-10T10:38:22.724Z,99046.78
2017-12-10T10:40:50.444Z,99040.09
2017-12-10T10:43:18.184Z,99039.33
2017-12-10T10:45:46.246Z,99030.23
2017-12-10T10:48:13.994Z,99030.19
2017-12-10T10:50:41.712Z,99024.22
2017-12-10T10:53:09.502Z,99013.09
2017-12-10T10:55:37.192Z,99005.17
2017-12-10T10:58:04.926Z,98998.82
2017-12-10T11:00:32.632Z,98994.70
2017-12-10T11:03:00.375Z,98995.72
2017-12-10T11:05:28.070Z,98982.60
2017-12-10T11:07:55.757Z,98962.30
2017-12-10T11:10:23.496Z,98961.48
2017-12-10T11:12:51.214Z,98959.38
2017-12-10T11:15:18.951Z,98952.64
2017-12-10T11:17:46.646Z,98939.06
2017-12-10T11:20:14.400Z,98941.27
2017-12-10T11:22:42.092Z,98933.03
2017-12-10T11:25:09.849Z,98926.45
2017-12-10T11:27:37.527Z,98916.85
2017-12-10T11:30:05.284Z,98907.27
2017-12-10T11:32:32.965Z,98898.27
2017-12-10T11:35:00.689Z,98888.72
2017-12-10T11:37:28.382Z,98882.45
2017-12-10T11:39:56.101Z,98875.88
2017-12-10T11:42:23.933Z,98871.70
2017-12-10T11:44:51.701Z,98870.28
2017-12-10T11:47:19.377Z,98850.27
2017-12-10T11:49:47.108Z,98850.32
2017-12-10T11:52:14.832Z,98836.56
2017-12-10T11:54:42.560Z,98825.92
2017-12-10T11:57:10.237Z,98820.02
2017-12-10T11:59:37.963Z,98805.14
2017-12-10T12:02:05.661Z,98805.45
2017-12-10T12:04:33.420Z,98803.06
2017-12-10T12:07:01.128Z,98787.59
2017-12-10T12:09:28.802Z,98783.31
2017-12-10T12:11:56.473Z,98772.39
2017-12-10T12:14:24.211Z,98771.25
2017-12-10T12:16:51.890Z,98768.80
2017-12-10T12:19:19.608Z,98755.41
2017-12-10T12:21:47.300Z,98757.34
2017-12-10T12:24:15.052Z,98745.67
2017-12-10T12:26:42.754Z,98745.58
2017-12-10T12:29:10.449Z,98732.05
2017-12-10T12:31:38.167Z,98728.29
2017-12-10T12:34:05.844Z,98711.16
2017-12-10T12:36:33.541Z,98708.13
2017-12-10T12:39:01.289Z,98697.39
2017-12-10T12:41:28.995Z,98700.95
2017-12-10T12:43:56.744Z,98689.17
2017-12-10T12:46:24.677Z,98684.00
2017-12-10T12:48:52.430Z,98679.72
2017-12-10T12:51:20.175Z,98670.13
2017-12-10T12:53:47.959Z,98657.70
2017-12-10T12:56:15.647Z,98643.98
2017-12-10T12:58:43.346Z,98646.09
2017-12-10T13:01:11.141Z,98639.52
2017-12-10T13:03:38.832Z,98631.21
2017-12-10T13:06:06.617Z,98622.02
2017-12-10T13:08:34.307Z,98616.39
2017-12-10T13:11:02.097Z,98614.77
2017-12-10T13:13:29.821Z,98600.01
2017-12-10T13:15:57.556Z,98603.77
2017-12-10T13:18:25.256Z,98583.89
2017-12-10T13:20:53.018Z,98578.47
2017-12-10T13:23:20.741Z,98569.42
2017-12-10T13:25:48.493Z,98560.89
2017-12-10T13:28:16.219Z,98558.20
2017-12-10T13:30:43.946Z,98543.09
2017-12-10T13:33:11.627Z,98542.98
2017-12-10T13:35:39.380Z,98529.52
2017-12-10T13:38:07.095Z,98528.30
2017-12-10T13:40:34.834Z,98512.94
2017-12-10T13:43:02.637Z,98501.48
2017-12-10T13:45:30.400Z,98492.45
2017-12-10T13:47:58.101Z,98497.21
2017-12-10T13:50:25.907Z,98501.47
2017-12-10T13:52:53.671Z,98503.80
2017-12-10T13:55:21.396Z,98499.02
2017-12-10T13:57:49.196Z,98515.63
2017-12-10T14:00:16.953Z,98497.21
2017-12-10T14:02:44.637Z,98482.70
2017-12-10T14:05:13.322Z,98471.80
2017-12-10T14:07:41.098Z,98471.63
2017-12-10T14:10:08.877Z,98471.39
2017-12-10T14:12:36.913Z,98467.38
2017-12-10T14:15:04.582Z,98454.00
2017-12-10T14:17:32.271Z,98449.89
2017-12-10T14:20:00.049Z,98444.15
2017-12-10T14:22:27.744Z,98436.48
2017-12-10T14:24:55.482Z,98435.94
2017-12-10T14:27:23.394Z,98440.19
2017-12-10T14:29:51.213Z,98436.60
2017-12-10T14:32:18.987Z,98437.70
2017-12-10T14:34:46.747Z,98431.97
2017-12-10T14:37:14.494Z,98425.53
2017-12-10T14:39:42.302Z,98424.42
2017-12-10T14:42:09.952Z,98418.05
2017-12-10T14:44:37.705Z,98412.22
2017-12-10T14:47:05.408Z,98419.88
2017-12-10T14:49:33.122Z,98403.45
2017-12-10T14:52:00.924Z,98408.37
2017-12-10T14:54:28.637Z,98403.05
2017-12-10T14:56:56.398Z,98399.75
2017-12-10T14:59:24.095Z,98404.82
2017-12-10T15:01:51.828Z,98399.02
2017-12-10T15:04:19.522Z,98397.65
2017-12-10T15:06:47.256Z,98393.95
2017-12-10T15:09:14.890Z,98395.64
2017-12-10T15:11:42.617Z,98407.00
2017-12-10T15:14:10.310Z,98393.95
2017-12-10T15:16:38.043Z,98402.98
2017-12-10T15:19:05.669Z,98404.69
2017-12-10T15:21:33.410Z,98391.55
2017-12-10T15:24:01.110Z,98406.06
2017-12-10T15:26:28.840Z,98397.44
2017-12-10T15:28:56.572Z,98393.81
2017-12-10T15:31:24.316Z,98395.04
2017-12-10T15:33:52.006Z,98391.27
2017-12-10T15:36:19.757Z,98381.09
2017-12-10T15:38:47.445Z,98370.66
2017-12-10T15:41:15.212Z,98364.77
2017-12-10T15:43:42.909Z,98353.02
2017-12-10T15:46:10.656Z,98355.60
2017-12-10T15:48:38.411Z,98364.25
2017-12-10T15:51:06.239Z,98354.23
2017-12-10T15:53:33.984Z,98346.61
2017-12-10T15:56:01.722Z,98340.22
2017-12-10T15:58:29.444Z,98337.98
2017-12-10T16:00:57.184Z,98333.92
2017-12-10T16:03:24.882Z,98327.80
2017-12-10T16:05:52.667Z,98311.92
2017-12-10T16:08:20.349Z,98306.08
2017-12-10T16:10:48.079Z,98297.03
2017-12-10T16:13:15.781Z,98300.33
2017-12-10T16:15:43.529Z,98291.75
2017-12-10T16:18:11.235Z,98294.47
2017-12-10T16:20:38.973Z,98273.26
2017-12-10T16:23:06.684Z,98273.99
2017-12-10T16:25:34.423Z,98273.64
2017-12-10T16:28:02.123Z,98261.39
2017-12-10T16:30:29.858Z,98262.36
2017-12-10T16:32:57.550Z,98248.48
2017-12-10T16:35:25.239Z,98242.05
2017-12-10T16:37:52.981Z,98232.66
2017-12-10T16:40:20.666Z,98228.15
2017-12-10T16:42:48.412Z,98217.77
2017-12-10T16:45:16.102Z,98214.62
2017-12-10T16:47:43.844Z,98200.69
2017-12-10T16:50:11.556Z,98202.70
2017-12-10T16:52:39.352Z,98201.22
2017-12-10T16:55:07.066Z,98182.81
2017-12-10T16:57:34.804Z,98190.75
2017-12-10T17:00:02.487Z,98170.24
2017-12-10T17:02:30.225Z,98177.66
2017-12-10T17:04:57.926Z,98158.59
2017-12-10T17:07:25.644Z,98160.50
2017-12-10T17:09:53.351Z,98154.48
2017-12-10T17:12:21.086Z,98152.86
2017-12-10T17:14:48.820Z,98150.67
2017-12-10T17:17:16.586Z,98139.33
2017-12-10T17:19:45.295Z,98140.16
2017-12-10T17:22:13.035Z,98142.33
2017-12-10T17:24:40.756Z,98133.98
2017-12-10T17:27:08.511Z,98138.55
2017-12-10T17:29:36.214Z,98129.42
2017-12-10T17:32:03.957Z,98116.48
2017-12-10T17:34:31.659Z,98116.28
2017-12-10T17:36:59.418Z,98108.07
2017-12-10T17:39:27.121Z,98103.97
2017-12-10T17:41:54.857Z,98093.77
2017-12-10T17:44:22.574Z,98090.14
2017-12-10T17:46:50.302Z,98082.31
2017-12-10T17:49:18.004Z,98069.78
2017-12-10T17:51:45.835Z,98064.23
2017-12-10T17:54:13.532Z,98068.34
2017-12-10T17:56:41.272Z,98065.42
2017-12-10T17:59:08.982Z,98053.12
2017-12-10T18:01:36.725Z,98041.64
2017-12-10T18:04:04.416Z,98038.50
2017-12-10T18:06:32.162Z,98036.09
2017-12-10T18:08:59.869Z,98036.02
2017-12-10T18:11:27.596Z,98023.70
2017-12-10T18:13:55.293Z,98030.55
2017-12-10T18:16:23.028Z,98028.52
2017-12-10T18:18:50.724Z,98017.09
2017-12-10T18:21:18.463Z,98011.00
2017-12-10T18:23:46.148Z,98001.80
2017-12-10T18:26:13.892Z,97997.63
2017-12-10T18:28:41.629Z,97996.58
2017-12-10T18:31:09.313Z,97991.75
2017-12-10T18:33:37.060Z,97988.67
2017-12-10T18:36:04.767Z,97994.33
2017-12-10T18:38:32.545Z,97993.41
2017-12-10T18:41:00.236Z,97989.48
2017-12-10T18:43:28.022Z,97985.38
2017-12-10T18:45:55.725Z,97982.57
2017-12-10T18:48:23.498Z,97985.92
2017-12-10T18:50:51.196Z,97980.86
2017-12-10T18:53:18.868Z,97969.59
2017-12-10T18:55:46.557Z,97974.25
2017-12-10T18:58:14.280Z,97967.34
2017-12-10T19:00:41.974Z,97956.41
2017-12-10T19:03:09.715Z,97952.20
2017-12-10T19:05:37.407Z,97966.37
2017-12-10T19:08:05.095Z,97962.91
2017-12-10T19:10:32.816Z,97967.15
2017-12-10T19:13:00.565Z,97953.48
2017-12-10T19:15:28.283Z,97959.21
2017-12-10T19:17:56.028Z,97954.30
2017-12-10T19:20:23.733Z,97940.56
2017-12-10T19:22:51.464Z,97950.42
2017-12-10T19:25:19.154Z,97942.63
2017-12-10T19:27:46.888Z,97928.74
2017-12-10T19:30:15.507Z,97928.63
2017-12-10T19:32:43.257Z,97920.44
2017-12-10T19:35:10.938Z,97911.84
2017-12-10T19:37:38.713Z,97912.72
2017-12-10T19:40:06.409Z,97909.91
2017-12-10T19:42:34.155Z,97900.90
2017-12-10T19:45:01.857Z,97908.06
2017-12-10T19:47:29.618Z,97903.47
2017-12-10T19:49:57.338Z,97896.87
2017-12-10T19:52:25.120Z,97894.62
2017-12-10T19:54:52.816Z,97888.45
2017-12-10T19:57:20.560Z,97885.54
2017-12-10T19:59:48.264Z,97877.93
2017-12-10T20:02:15.998Z,97874.80
2017-12-10T20:04:43.723Z,97874.47
2017-12-10T20:07:11.466Z,97871.81
2017-12-10T20:09:39.161Z,97866.75
2017-12-10T20:12:06.896Z,97864.10
2017-12-10T20:14:34.631Z,97851.66
2017-12-10T20:17:02.353Z,97842.50
2017-12-10T20:19:30.081Z,97840.58
2017-12-10T20:21:57.776Z,97831.02
2017-12-10T20:24:25.497Z,97824.82
2017-12-10T20:26:53.191Z,97820.42
2017-12-10T20:29:20.936Z,97815.19
2017-12-10T20:31:48.640Z,97804.36
2017-12-10T20:34:16.404Z,97811.98
2017-12-10T20:36:44.123Z,97808.95
2017-12-10T20:39:11.871Z,97800.56
2017-12-10T20:41:39.584Z,97808.13
2017-12-10T20:44:07.349Z,97805.10
2017-12-10T20:46:35.045Z,97798.16
2017-12-10T20:49:02.793Z,97798.57
2017-12-10T20:51:30.589Z,97799.38
2017-12-10T20:53:58.408Z,97801.38
2017-12-10T20:56:26.085Z,97791.41
2017-12-10T20:58:53.832Z,97776.72
2017-12-10T21:01:21.578Z,97790.45
2017-12-10T21:03:49.360Z,97787.87
2017-12-10T21:06:17.048Z,97773.80
2017-12-10T21:08:44.796Z,97774.54
2017-12-10T21:11:12.509Z,97783.44
2017-12-10T21:13:40.331Z,97777.57
2017-12-10T21:16:08.019Z,97773.66
2017-12-10T21:18:35.761Z,97756.75
2017-12-10T21:21:03.446Z,97761.11
2017-12-10T21:23:31.192Z,97758.23
2017-12-10T21:25:58.896Z,97747.93
2017-12-10T21:28:26.650Z,97742.88
2017-12-10T21:30:54.365Z,97743.69
2017-12-10T21:33:22.131Z,97743.28
2017-12-10T21:35:49.848Z,97733.16
2017-12-10T21:38:17.601Z,97733.64
2017-12-10T21:40:45.296Z,97727.11
2017-12-10T21:43:13.044Z,97727.77
2017-12-10T21:45:40.742Z,97714.82
2017-12-10T21:48:08.415Z,97713.56
2017-12-10T21:50:36.112Z,97716.30
2017-12-10T21:53:03.819Z,97707.84
2017-12-10T21:55:31.518Z,97712.98
2017-12-10T21:57:59.284Z,97710.02
2017-12-10T22:00:26.972Z,97715.16
2017-12-10T22:02:54.697Z,97705.74
2017-12-10T22:05:22.402Z,97712.42
2017-12-10T22:07:50.065Z,97696.69
2017-12-10T22:10:17.776Z,97707.03
2017-12-10T22:12:45.538Z,97709.39
2017-12-10T22:15:13.248Z,97696.84
2017-12-10T22:17:40.929Z,97696.69
2017-12-10T22:20:08.663Z,97698.46
2017-12-10T22:22:36.364Z,97692.52
2017-12-10T22:25:04.108Z,97694.28
2017-12-10T22:27:31.792Z,97691.06
2017-12-10T22:29:59.488Z,97677.41
2017-12-10T22:32:27.202Z,97679.41
2017-12-10T22:34:54.945Z,97673.61
2017-12-10T22:37:22.650Z,97670.17
2017-12-10T22:39:50.390Z,97652.26
2017-12-10T22:42:18.072Z,97658.91
2017-12-10T22:44:45.820Z,97641.80
2017-12-10T22:47:13.528Z,97639.06
2017-12-10T22:49:41.248Z,97650.55
2017-12-10T22:52:08.996Z,97640.68
2017-12-10T22:54:36.719Z,97635.44
2017-12-10T22:57:04.417Z,97626.12
2017-12-10T22:59:32.141Z,97622.42
2017-12-10T23:01:59.837Z,97613.75
2017-12-10T23:04:27.581Z,97619.59
2017-12-10T23:06:55.278Z,97610.76
2017-12-10T23:09:23.021Z,97618.88
2017-12-10T23:11:50.709Z,97608.97
2017-12-10T23:14:18.450Z,97591.36
2017-12-10T23:16:46.131Z,97593.78
2017-12-10T23:19:13.863Z,97602.86
2017-12-10T23:21:41.555Z,97596.25
2017-12-10T23:24:09.299Z,97590.88
2017-12-10T23:26:36.999Z,97588.15
2017-12-10T23:29:04.742Z,97578.31
2017-12-10T23:31:32.445Z,97581.14
2017-12-10T23:34:00.192Z,97563.03
2017-12-10T23:36:27.912Z,97560.92
2017-12-10T23:38:55.647Z,97561.17
2017-12-10T23:41:23.329Z,97549.69
2017-12-10T23:43:51.049Z,97557.55
2017-12-10T23:46:18.678Z,97558.75
2017-12-10T23:48:46.412Z,97552.95
2017-12-10T23:51:14.101Z,97546.61
2017-12-10T23:53:41.879Z,97534.19
2017-12-10T23:56:09.581Z,97538.05
2017-12-10T23:58:37.317Z,97537.95
